createdAt,value
2019-06-20T01:08:28.020Z,16.80
2019-06-20T01:28:39.328Z,16.60
2019-06-20T01:38:45.580Z,16.50
2019-06-20T01:48:50.829Z,16.50
2019-06-20T01:58:56.022Z,17.60
2019-06-20T02:11:31.274Z,16.20
2019-06-20T02:14:07.145Z,16.10
2019-06-20T02:27:43.251Z,16.00
2019-06-20T02:36:06.206Z,16.00
2019-06-20T02:38:35.936Z,16.00
2019-06-20T02:43:40.531Z,16.00
2019-06-20T02:48:40.966Z,16.10
2019-06-20T02:51:11.086Z,16.10
2019-06-20T02:53:42.211Z,16.10
2019-06-20T02:56:11.948Z,16.20
2019-06-20T03:03:43.835Z,16.20
2019-06-20T03:21:21.524Z,16.70
2019-06-20T04:29:13.262Z,20.20
2019-06-20T04:46:59.079Z,20.30
2019-06-20T04:49:28.981Z,21.10
2019-06-20T04:51:58.808Z,20.50
2019-06-20T04:56:59.040Z,20.80
2019-06-20T04:59:42.199Z,21.00
2019-06-20T05:02:14.960Z,21.00
2019-06-20T05:04:43.986Z,21.20
2019-06-20T05:07:19.560Z,21.70
2019-06-20T05:09:54.549Z,21.10
2019-06-20T05:12:24.637Z,20.70
2019-06-20T05:14:54.629Z,20.40
2019-06-20T05:18:17.241Z,20.40
2019-06-20T05:20:47.132Z,20.70
2019-06-20T05:23:19.815Z,20.50
2019-06-20T05:25:53.194Z,20.50
2019-06-20T05:28:25.170Z,20.70
2019-06-20T05:30:54.874Z,20.90
2019-06-20T05:33:24.545Z,21.20
2019-06-20T05:35:54.258Z,21.50
2019-06-20T05:38:24.171Z,21.60
2019-06-20T05:40:54.553Z,21.50
2019-06-20T05:43:24.483Z,21.80
2019-06-20T05:46:08.412Z,22.00
2019-06-20T05:48:25.590Z,21.60
2019-06-20T05:50:56.118Z,22.00
2019-06-20T05:53:26.177Z,22.40
2019-06-20T05:55:56.652Z,22.20
2019-06-20T05:58:26.738Z,21.70
2019-06-20T06:00:57.985Z,21.60
2019-06-20T06:03:28.720Z,21.30
2019-06-20T06:05:59.133Z,20.90
2019-06-20T06:08:29.830Z,20.80
2019-06-20T06:10:59.783Z,20.70
2019-06-20T06:13:29.974Z,20.60
2019-06-20T06:16:00.243Z,20.60
2019-06-20T06:18:30.628Z,20.50
2019-06-20T06:21:00.570Z,20.60
2019-06-20T06:23:30.474Z,20.50
2019-06-20T06:26:01.615Z,20.60
2019-06-20T06:29:01.397Z,20.60
2019-06-20T06:31:35.448Z,20.40
2019-06-20T06:34:06.231Z,20.00
2019-06-20T06:39:10.151Z,19.70
2019-06-20T06:44:11.647Z,19.60
2019-06-20T06:46:47.173Z,19.60
2019-06-20T06:49:13.542Z,19.30
2019-06-20T06:51:44.814Z,19.40
2019-06-20T07:04:15.008Z,18.70
2019-06-20T07:11:47.601Z,19.00
2019-06-20T07:19:23.142Z,19.70
2019-06-20T07:34:27.678Z,19.30
2019-06-20T07:44:31.970Z,19.70
2019-06-20T08:12:12.517Z,20.40
2019-06-20T08:19:42.465Z,21.00
2019-06-20T08:29:44.243Z,20.80
2019-06-20T08:32:14.207Z,21.10
2019-06-20T08:34:44.591Z,21.30
2019-06-20T08:39:54.012Z,20.60
2019-06-20T08:42:24.451Z,20.50
2019-06-20T08:52:29.083Z,20.50
2019-06-20T08:55:01.012Z,20.60
2019-06-20T08:57:31.474Z,20.60
2019-06-20T09:02:32.534Z,21.20
2019-06-20T09:10:07.682Z,21.50
2019-06-20T09:12:37.641Z,21.80
2019-06-20T09:15:10.742Z,21.90
2019-06-20T09:17:43.375Z,22.10
2019-06-20T09:22:45.089Z,22.40
2019-06-20T09:25:15.934Z,22.60
2019-06-20T09:30:16.735Z,21.90
2019-06-20T09:32:47.613Z,21.60
2019-06-20T09:35:18.099Z,21.30
2019-06-20T09:37:51.930Z,21.00
2019-06-20T09:40:25.646Z,20.80
2019-06-20T09:45:28.483Z,20.50
2019-06-20T09:47:58.434Z,20.40
2019-06-20T09:52:59.649Z,20.20
2019-06-20T09:55:30.283Z,20.30
2019-06-20T09:58:00.845Z,20.60
2019-06-20T10:00:32.253Z,20.90
2019-06-20T10:05:32.475Z,21.10
2019-06-20T10:08:02.806Z,21.20
2019-06-20T10:10:50.358Z,21.50
2019-06-20T10:13:22.594Z,21.50
2019-06-20T10:15:53.473Z,21.30
2019-06-20T10:18:23.792Z,21.50
2019-06-20T10:21:00.835Z,21.50
2019-06-20T10:23:31.167Z,21.40
2019-06-20T10:26:01.285Z,21.10
2019-06-20T10:28:32.393Z,20.90
2019-06-20T10:33:32.831Z,21.10
2019-06-20T10:38:43.672Z,21.70
2019-06-20T10:41:14.242Z,22.00
2019-06-20T10:43:45.738Z,22.40
2019-06-20T10:46:15.829Z,22.20
2019-06-20T10:48:48.155Z,22.10
2019-06-20T10:51:34.061Z,21.80
2019-06-20T10:56:33.633Z,21.50
2019-06-20T10:59:04.928Z,21.40
2019-06-20T11:01:36.370Z,21.80
2019-06-20T11:04:31.957Z,22.00
2019-06-20T11:07:02.254Z,22.00
2019-06-20T11:09:33.562Z,22.10
2019-06-20T11:12:04.265Z,22.20
2019-06-20T11:14:35.401Z,22.00
2019-06-20T11:17:05.437Z,21.90
2019-06-20T11:19:38.137Z,22.10
2019-06-20T11:22:07.328Z,22.50
2019-06-20T11:24:38.878Z,22.70
2019-06-20T11:27:08.371Z,22.80
2019-06-20T11:29:38.601Z,23.00
2019-06-20T11:32:08.650Z,23.10
2019-06-20T11:34:42.336Z,23.10
2019-06-20T11:37:14.766Z,23.10
2019-06-20T11:39:47.418Z,23.10
2019-06-20T11:42:17.558Z,23.20
2019-06-20T11:44:47.601Z,23.10
2019-06-20T11:47:20.514Z,23.20
2019-06-20T11:49:49.509Z,23.30
2019-06-20T11:52:19.934Z,23.20
2019-06-20T11:54:50.488Z,23.20
2019-06-20T11:57:23.116Z,23.10
2019-06-20T11:59:57.966Z,23.10
2019-06-20T12:02:27.687Z,23.10
2019-06-20T12:04:59.874Z,23.30
2019-06-20T12:07:30.100Z,23.40
2019-06-20T12:10:01.118Z,23.50
2019-06-20T12:12:31.493Z,23.50
2019-06-20T12:15:01.680Z,23.30
2019-06-20T12:17:32.195Z,23.10
2019-06-20T12:20:04.361Z,23.20
2019-06-20T12:22:34.622Z,22.90
2019-06-20T12:25:12.059Z,22.70
2019-06-20T12:27:45.385Z,22.60
2019-06-20T12:30:16.315Z,22.80
2019-06-20T12:32:49.753Z,23.10
2019-06-20T12:35:24.491Z,23.50
2019-06-20T12:37:54.311Z,23.50
2019-06-20T12:40:27.127Z,23.30
2019-06-20T12:42:58.441Z,23.50
2019-06-20T12:45:28.651Z,23.70
2019-06-20T12:47:58.513Z,24.10
2019-06-20T12:50:30.755Z,24.10
2019-06-20T12:53:00.521Z,24.40
2019-06-20T12:55:30.252Z,24.30
2019-06-20T12:58:01.173Z,24.30
2019-06-20T13:00:31.751Z,24.30
2019-06-20T13:03:01.412Z,24.10
2019-06-20T13:05:44.894Z,24.10
2019-06-20T13:08:15.410Z,23.90
2019-06-20T13:10:48.309Z,23.60
2019-06-20T13:13:21.052Z,23.20
2019-06-20T13:15:50.863Z,22.70
2019-06-20T13:18:21.929Z,22.40
2019-06-20T13:20:51.837Z,22.50
2019-06-20T13:23:21.785Z,22.80
2019-06-20T13:29:03.723Z,23.00
2019-06-20T13:31:26.874Z,23.20
2019-06-20T13:33:56.808Z,23.40
2019-06-20T13:36:26.742Z,23.50
2019-06-20T13:38:58.988Z,23.60
2019-06-20T13:41:28.931Z,23.90
2019-06-20T13:43:59.513Z,24.20
2019-06-20T13:46:29.797Z,24.30
2019-06-20T13:49:01.613Z,24.20
2019-06-20T13:51:32.344Z,23.80
2019-06-20T13:54:02.211Z,23.50
2019-06-20T13:56:32.418Z,23.30
2019-06-20T13:59:02.355Z,23.40
2019-06-20T14:01:32.383Z,23.50
2019-06-20T14:04:03.228Z,23.50
2019-06-20T14:06:34.103Z,23.30
2019-06-20T14:09:05.482Z,23.20
2019-06-20T14:11:35.355Z,23.30
2019-06-20T14:14:05.526Z,23.20
2019-06-20T14:16:36.517Z,23.40
2019-06-20T14:19:06.349Z,23.70
2019-06-20T14:21:37.092Z,23.90
2019-06-20T14:24:07.048Z,24.10
2019-06-20T14:26:37.086Z,24.30
2019-06-20T14:29:07.149Z,24.20
2019-06-20T14:31:38.389Z,24.20
2019-06-20T14:34:08.394Z,24.30
2019-06-20T14:36:38.766Z,24.00
2019-06-20T14:39:08.993Z,24.00
2019-06-20T14:41:39.496Z,23.90
2019-06-20T14:44:10.397Z,23.80
2019-06-20T14:46:40.802Z,23.80
2019-06-20T14:49:10.990Z,24.00
2019-06-20T14:51:41.261Z,24.30
2019-06-20T14:54:12.515Z,24.40
2019-06-20T14:56:44.467Z,24.40
2019-06-20T14:59:14.518Z,24.30
2019-06-20T15:01:48.015Z,24.30
2019-06-20T15:04:17.809Z,24.40
2019-06-20T15:06:48.421Z,24.40
2019-06-20T15:09:19.083Z,24.30
2019-06-20T15:11:49.710Z,24.20
2019-06-20T15:14:22.709Z,24.20
2019-06-20T15:16:53.923Z,24.10
2019-06-20T15:19:23.704Z,23.90
2019-06-20T15:21:56.536Z,23.90
2019-06-20T15:24:26.899Z,23.60
2019-06-20T15:26:57.037Z,23.40
2019-06-20T15:29:27.544Z,23.00
2019-06-20T15:31:59.839Z,22.90
2019-06-20T15:34:32.667Z,22.80
2019-06-20T15:37:05.656Z,22.60
2019-06-20T15:39:35.655Z,22.30
2019-06-20T15:42:06.036Z,22.00
2019-06-20T15:44:36.249Z,21.80
2019-06-20T15:47:06.462Z,21.70
2019-06-20T15:49:41.012Z,21.70
2019-06-20T15:52:12.467Z,21.20
2019-06-20T15:54:47.850Z,20.90
2019-06-20T15:57:20.779Z,20.90
2019-06-20T15:59:52.512Z,21.10
2019-06-20T16:02:26.405Z,21.10
2019-06-20T16:04:59.264Z,21.60
2019-06-20T16:07:29.047Z,21.60
2019-06-20T16:10:11.546Z,21.80
2019-06-20T16:12:48.059Z,21.80
2019-06-20T16:15:26.760Z,21.90
2019-06-20T16:17:56.702Z,22.00
2019-06-20T16:20:26.796Z,22.10
2019-06-20T16:22:56.602Z,22.40
2019-06-20T16:25:26.682Z,22.30
2019-06-20T16:27:57.388Z,23.00
2019-06-20T16:30:33.570Z,23.10
2019-06-20T16:33:04.447Z,23.70
2019-06-20T16:35:39.772Z,23.40
2019-06-20T16:38:09.645Z,23.20
2019-06-20T16:40:45.501Z,23.30
2019-06-20T16:43:16.673Z,23.20
2019-06-20T16:45:49.870Z,22.80
2019-06-20T16:48:19.864Z,22.50
2019-06-20T16:50:49.830Z,22.50
2019-06-20T16:53:20.084Z,22.60
2019-06-20T16:55:49.817Z,22.70
2019-06-20T16:58:19.583Z,23.00
2019-06-20T17:00:49.741Z,23.30
2019-06-20T17:03:19.871Z,23.70
2019-06-20T17:05:49.518Z,23.70
2019-06-20T17:08:19.257Z,23.80
2019-06-20T17:10:49.619Z,23.50
2019-06-20T17:13:19.782Z,23.50
2019-06-20T17:15:50.448Z,23.50
2019-06-20T17:18:20.917Z,23.60
2019-06-20T17:20:52.647Z,23.60
2019-06-20T17:23:26.993Z,23.60
2019-06-20T17:25:56.985Z,23.60
2019-06-20T17:28:27.749Z,23.40
2019-06-20T17:30:57.411Z,23.30
2019-06-20T17:33:29.444Z,23.20
2019-06-20T17:35:59.146Z,23.30
2019-06-20T17:38:28.799Z,23.30
2019-06-20T17:41:00.871Z,23.50
2019-06-20T17:43:30.899Z,23.60
2019-06-20T17:46:01.049Z,23.50
2019-06-20T17:48:33.181Z,23.50
2019-06-20T17:51:02.861Z,23.40
2019-06-20T17:53:32.748Z,23.30
2019-06-20T17:56:02.705Z,23.50
2019-06-20T17:58:32.435Z,23.60
2019-06-20T18:01:03.720Z,23.70
2019-06-20T18:03:33.581Z,23.50
2019-06-20T18:06:03.534Z,23.70
2019-06-20T18:08:33.541Z,23.70
2019-06-20T18:11:03.435Z,23.90
2019-06-20T18:13:33.094Z,23.80
2019-06-20T18:16:05.966Z,23.80
2019-06-20T18:18:35.861Z,23.70
2019-06-20T18:21:05.861Z,23.50
2019-06-20T18:23:36.550Z,23.50
2019-06-20T18:26:06.453Z,23.50
2019-06-20T18:28:36.544Z,23.30
2019-06-20T18:31:08.958Z,22.90
2019-06-20T18:33:38.877Z,22.60
2019-06-20T18:36:10.530Z,22.30
2019-06-20T18:38:40.555Z,22.10
2019-06-20T18:41:12.549Z,21.80
2019-06-20T18:43:42.914Z,21.60
2019-06-20T18:46:12.656Z,21.30
2019-06-20T18:48:42.806Z,21.10
2019-06-20T18:51:12.762Z,21.00
2019-06-20T18:53:46.348Z,20.90
2019-06-20T18:56:16.259Z,20.80
2019-06-20T18:58:45.945Z,20.70
2019-06-20T19:01:17.663Z,20.70
2019-06-20T19:03:48.737Z,20.50
2019-06-20T19:06:18.429Z,20.50
2019-06-20T19:08:48.599Z,20.40
2019-06-20T19:11:18.723Z,20.40
2019-06-20T19:13:50.371Z,20.30
2019-06-20T19:16:20.074Z,20.20
2019-06-20T19:18:53.467Z,20.20
2019-06-20T19:23:55.557Z,20.10
2019-06-20T19:26:25.687Z,20.10
2019-06-20T19:28:56.485Z,20.10
2019-06-20T19:33:57.195Z,20.10
2019-06-20T19:36:27.509Z,20.10
2019-06-20T19:38:59.777Z,20.10
2019-06-20T19:41:30.660Z,20.10
2019-06-20T19:44:01.822Z,20.10
2019-06-20T21:07:10.296Z,16.90
2019-06-20T21:09:42.337Z,17.10
2019-06-20T21:12:12.145Z,16.70
2019-06-20T21:14:44.196Z,16.30
2019-06-20T21:17:18.639Z,16.20
2019-06-20T21:19:51.636Z,16.10
2019-06-20T21:22:21.558Z,16.10
2019-06-20T21:24:52.012Z,15.90
2019-06-20T21:27:24.363Z,15.90
2019-06-20T21:29:54.190Z,15.90
2019-06-20T21:32:23.793Z,15.90
2019-06-20T21:34:53.686Z,16.00
2019-06-20T21:37:24.491Z,15.90
2019-06-20T21:39:54.380Z,16.00
2019-06-20T21:42:24.057Z,16.00
2019-06-20T21:44:54.104Z,16.20
2019-06-20T21:47:24.298Z,16.30
2019-06-20T21:49:54.190Z,16.50
2019-06-20T21:52:26.000Z,16.20
2019-06-20T21:54:55.656Z,16.60
2019-06-20T21:57:27.260Z,16.10
2019-06-20T21:59:59.589Z,16.20
2019-06-20T22:02:29.359Z,16.20
2019-06-20T22:04:59.242Z,16.30
2019-06-20T22:07:29.462Z,16.20
2019-06-20T22:09:59.472Z,16.30
2019-06-20T22:12:29.453Z,16.30
2019-06-20T22:14:59.287Z,16.20
2019-06-20T22:17:29.157Z,16.20
2019-06-20T22:20:01.386Z,16.20
2019-06-20T22:22:32.564Z,16.10
2019-06-20T22:25:02.752Z,16.20
2019-06-20T22:27:32.489Z,16.20
2019-06-20T22:30:04.326Z,16.20
2019-06-20T22:32:34.414Z,16.10
2019-06-20T22:35:04.689Z,16.10
2019-06-20T22:37:34.858Z,16.10
2019-06-20T22:40:05.172Z,16.10
2019-06-20T22:42:36.490Z,16.10
2019-06-20T22:45:07.175Z,16.10
2019-06-20T22:47:37.132Z,16.00
2019-06-20T22:50:07.194Z,16.00
2019-06-20T22:52:38.458Z,16.00
2019-06-20T22:55:08.849Z,16.00
2019-06-20T22:57:38.737Z,16.00
2019-06-20T23:00:10.161Z,16.10
2019-06-20T23:02:40.546Z,15.90
2019-06-20T23:05:12.489Z,16.00
2019-06-20T23:07:42.495Z,15.80
2019-06-20T23:10:15.729Z,15.90
2019-06-20T23:12:45.385Z,16.00
2019-06-20T23:15:17.245Z,15.80
2019-06-20T23:17:49.321Z,15.80
2019-06-20T23:20:20.420Z,15.70
2019-06-20T23:22:50.405Z,15.70
2019-06-20T23:25:20.370Z,15.70
2019-06-20T23:27:50.099Z,15.60
2019-06-20T23:30:22.463Z,15.60
2019-06-20T23:32:53.433Z,15.70
2019-06-20T23:35:23.133Z,15.60
2019-06-20T23:37:52.928Z,15.60
2019-06-20T23:40:23.622Z,15.60
2019-06-20T23:42:53.909Z,15.50
2019-06-20T23:45:23.584Z,15.50
2019-06-20T23:47:53.357Z,15.50
2019-06-20T23:50:25.545Z,15.50
2019-06-20T23:53:10.384Z,15.40
2019-06-20T23:55:41.081Z,15.40
2019-06-20T23:58:11.111Z,15.40
